Accueil
METAR-TAF:

METAR-TAF

Aéroports :

Aéroport de Brest-Bretagne, Guipavas

Brest, France

latitude: 48-27N, longitude: 004-25W, altitude: 99 m

Observation

Le bulletin a été fait il y a 15 minutes, à 08:00 UTC
Vent 6 kt de nord
Température 12°C
Humidité 94%
Pression 1008 hPa
Visibilité: 2500 m
Ciel couvert à une hauteur de 300 ft
faible bruine, brume

METAR: LFRB 150800Z AUTO 35006KT 2500 -DZ BR OVC003 12/11 Q1008 TEMPO 3000 RADZ

Heure: 10:15 (08:15 UTC)

Prévision

Le bulletin a été fait il y a 3 heures et 15 minutes, à 05:00 UTC
Prévision valable du 15 à 06 UTC au 16 à 12 UTC
Vent 5 kt de nord
Visibilité 10 km ou plus
Nuages fragmentés à une hauteur de 800 ft
Temporairement
du 15 à 06 UTC au 16 à 12 UTC
Visibilité: 3000 m
Ciel couvert à une hauteur de 300 ft
pluie, bruine

TAF: LFRB 150500Z 1506/1612 35005KT 9999 BKN008 TEMPO 1506/1612 3000 RADZ OVC003

Observations et prévisions météorologiques de plus de 4000 aéroports (messages METAR et TAF).

Les stations disponibles sont représentées par des disques jaunes et rouges sur la carte.

Passer la souris dessus pour voir le nom de la station.

Cliquer dessus pour voir les observations et prévisions météorologiques.

Pour changer de carte: cliquez sur les boutons verts avec une croix noire pour zoomer, sur le bouton vert avec un tiret pour effectuer un zoom arrière, ou sur les flèches vertes pour les cartes adjacentes.


METAR-TAF: